createdAt,value
2018-09-15T00:00:11.478Z,95911
2018-09-15T00:01:13.646Z,95916.4
2018-09-15T00:02:16.075Z,95911.8
2018-09-15T00:03:18.518Z,95914.7
2018-09-15T00:04:20.954Z,95910.5
2018-09-15T00:05:23.382Z,95914.5
2018-09-15T00:06:25.818Z,95908.4
2018-09-15T00:07:28.245Z,95914.5
2018-09-15T00:08:30.690Z,95912.1
2018-09-15T00:09:32.840Z,95914.4
2018-09-15T00:10:35.287Z,95916.2
2018-09-15T00:11:37.719Z,95916.1
2018-09-15T00:12:40.153Z,95918.4
2018-09-15T00:13:42.638Z,95916.9
2018-09-15T00:14:44.780Z,95916.4
2018-09-15T00:15:47.207Z,95917.3
2018-09-15T00:16:49.637Z,95917.7
2018-09-15T00:17:51.787Z,95915.3
2018-09-15T00:18:54.221Z,95911.6
2018-09-15T00:19:56.652Z,95913
2018-09-15T00:20:59.076Z,95905.8
2018-09-15T00:22:01.511Z,95908.6
2018-09-15T00:23:03.935Z,95908.5
2018-09-15T00:24:06.546Z,95909.5
2018-09-15T00:25:08.981Z,95905.9
2018-09-15T00:26:11.442Z,95906.2
2018-09-15T00:27:13.875Z,95905.4
2018-09-15T00:28:16.042Z,95904.9
2018-09-15T00:29:18.465Z,95901.7
2018-09-15T00:30:20.913Z,95899
2018-09-15T00:31:23.350Z,95898.8
2018-09-15T00:32:25.783Z,95896.4
2018-09-15T00:33:28.228Z,95899.1
2018-09-15T00:34:30.647Z,95892.2
2018-09-15T00:35:32.805Z,95889.3
2018-09-15T00:36:35.225Z,95887.5
2018-09-15T00:37:37.382Z,95885.2
2018-09-15T00:38:39.816Z,95890.4
2018-09-15T00:39:42.256Z,95895.4
2018-09-15T00:40:44.687Z,95897.7
2018-09-15T00:41:46.978Z,95898
2018-09-15T00:42:49.179Z,95894.8
2018-09-15T00:43:51.613Z,95898.1
2018-09-15T00:44:54.067Z,95890.4
2018-09-15T00:45:56.496Z,95890.9
2018-09-15T00:46:58.924Z,95889
2018-09-15T00:48:01.357Z,95890.9
2018-09-15T00:49:03.795Z,95887.8
2018-09-15T00:50:06.227Z,95886
2018-09-15T00:51:08.653Z,95885
2018-09-15T00:52:10.796Z,95883.5
2018-09-15T00:53:13.257Z,95879.7
2018-09-15T00:54:15.702Z,95886.4
2018-09-15T00:55:18.129Z,95884.3
2018-09-15T00:56:19.991Z,95886.2
2018-09-15T00:57:22.147Z,95884.3
2018-09-15T00:58:24.583Z,95884.8
2018-09-15T00:59:27.015Z,95886.1
2018-09-15T01:00:29.176Z,95885.5
2018-09-15T01:01:31.614Z,95886.9
2018-09-15T01:02:34.082Z,95887.6
2018-09-15T01:03:36.235Z,95892.7
2018-09-15T01:04:38.668Z,95889.5
2018-09-15T01:05:41.103Z,95892
2018-09-15T01:06:43.537Z,95891.8
2018-09-15T01:07:45.979Z,95893.3
2018-09-15T01:08:48.406Z,95893.7
2018-09-15T01:09:50.842Z,95892.9
2018-09-15T01:10:53.271Z,95897.6
2018-09-15T01:11:55.705Z,95897.5
2018-09-15T01:12:58.136Z,95897
2018-09-15T01:14:00.853Z,95899.5
2018-09-15T01:15:03.206Z,95897
2018-09-15T01:16:05.634Z,95899.8
2018-09-15T01:17:08.071Z,95900.4
2018-09-15T01:18:10.221Z,95895.8
2018-09-15T01:19:12.656Z,95895.5
2018-09-15T01:20:15.088Z,95896.1
2018-09-15T01:21:17.510Z,95893.3
2018-09-15T01:22:19.950Z,95893.4
2018-09-15T01:23:22.387Z,95901.3
2018-09-15T01:24:24.822Z,95897.8
2018-09-15T01:25:26.985Z,95901.4
2018-09-15T01:26:29.417Z,95896.9
2018-09-15T01:27:31.569Z,95899.1
2018-09-15T01:28:34.007Z,95906.5
2018-09-15T01:29:36.433Z,95902.6
2018-09-15T01:30:38.866Z,95904.2
2018-09-15T01:31:41.287Z,95905.9
2018-09-15T01:32:43.721Z,95907.7
2018-09-15T01:33:45.621Z,95905.8
2018-09-15T01:34:48.050Z,95913
2018-09-15T01:35:50.176Z,95909.8
2018-09-15T01:36:52.621Z,95911
2018-09-15T01:37:55.051Z,95903.7
2018-09-15T01:38:57.505Z,95904.7
2018-09-15T01:39:59.946Z,95907.2
2018-09-15T01:41:02.379Z,95906
2018-09-15T01:42:04.816Z,95909.8
2018-09-15T01:43:07.245Z,95909.7
2018-09-15T01:44:09.678Z,95914.8
2018-09-15T01:45:12.104Z,95917.4
2018-09-15T01:46:14.533Z,95914.7
2018-09-15T01:47:16.957Z,95916.4
2018-09-15T01:48:19.389Z,95917.7
2018-09-15T01:49:21.816Z,95923.9
2018-09-15T01:50:24.246Z,95923.4
2018-09-15T01:51:26.688Z,95922.8
2018-09-15T01:52:29.119Z,95923.1
2018-09-15T01:53:31.554Z,95926.2
2018-09-15T01:54:33.724Z,95926.6
2018-09-15T01:55:36.153Z,95927.5
2018-09-15T01:56:38.594Z,95923
2018-09-15T01:57:41.470Z,95919.6
2018-09-15T01:58:43.636Z,95918.7
2018-09-15T01:59:46.083Z,95914.8
2018-09-15T02:00:48.243Z,95913.7
2018-09-15T02:01:50.122Z,95910.4
2018-09-15T02:02:52.284Z,95914.5
2018-09-15T02:03:54.468Z,95913.2
2018-09-15T02:04:56.893Z,95915.4
2018-09-15T02:05:59.338Z,95909.9
2018-09-15T02:07:01.468Z,95909.8
2018-09-15T02:08:03.893Z,95913.4
2018-09-15T02:09:06.322Z,95909.7
2018-09-15T02:10:08.486Z,95913.4
2018-09-15T02:11:10.910Z,95915
2018-09-15T02:12:13.344Z,95915.7
2018-09-15T02:13:15.775Z,95920.8
2018-09-15T02:14:18.216Z,95918.3
2018-09-15T02:15:20.665Z,95920.5
2018-09-15T02:16:23.096Z,95916.2
2018-09-15T02:17:25.536Z,95918.2
2018-09-15T02:18:27.971Z,95918.6
2018-09-15T02:19:30.397Z,95918.7
2018-09-15T02:20:32.826Z,95919.3
2018-09-15T02:21:34.986Z,95917.5
2018-09-15T02:22:37.837Z,95911.1
2018-09-15T02:23:40.366Z,95912
2018-09-15T02:24:42.805Z,95908.8
2018-09-15T02:25:45.250Z,95914.9
2018-09-15T02:26:47.684Z,95914.2
2018-09-15T02:27:50.116Z,95917.1
2018-09-15T02:28:52.573Z,95913.8
2018-09-15T02:29:54.734Z,95914.2
2018-09-15T02:30:57.166Z,95918.3
2018-09-15T02:31:59.617Z,95919.3
2018-09-15T02:33:02.051Z,95910.6
2018-09-15T02:34:04.486Z,95916.6
2018-09-15T02:35:06.926Z,95913.4
2018-09-15T02:36:09.361Z,95914.3
2018-09-15T02:37:11.798Z,95917.6
2018-09-15T02:38:14.235Z,95914.6
2018-09-15T02:39:16.662Z,95919.7
2018-09-15T02:40:18.819Z,95921.9
2018-09-15T02:41:21.248Z,95917
2018-09-15T02:42:23.679Z,95920.6
2018-09-15T02:43:26.108Z,95918.4
2018-09-15T02:44:28.554Z,95916.6
2018-09-15T02:45:30.714Z,95917.3
2018-09-15T02:46:33.141Z,95917.7
2018-09-15T02:47:35.289Z,95921.2
2018-09-15T02:48:37.715Z,95920.6
2018-09-15T02:49:40.150Z,95921.5
2018-09-15T02:50:42.584Z,95918.3
2018-09-15T02:51:45.011Z,95921.7
2018-09-15T02:52:47.446Z,95923.6
2018-09-15T02:53:49.874Z,95923.1
2018-09-15T02:54:52.930Z,95925.9
2018-09-15T02:55:55.652Z,95928.1
2018-09-15T02:56:58.085Z,95933.5
2018-09-15T02:58:00.525Z,95930.3
2018-09-15T02:59:02.957Z,95929.5
2018-09-15T03:00:05.387Z,95927.6
2018-09-15T03:01:07.572Z,95928
2018-09-15T03:02:09.995Z,95929.6
2018-09-15T03:03:12.435Z,95932.4
2018-09-15T03:04:14.855Z,95933.6
2018-09-15T03:05:17.286Z,95933.3
2018-09-15T03:06:19.730Z,95930.1
2018-09-15T03:07:22.167Z,95932.2
2018-09-15T03:08:24.311Z,95935.2
2018-09-15T03:09:26.739Z,95931.9
2018-09-15T03:10:29.168Z,95937.3
2018-09-15T03:11:31.612Z,95935.7
2018-09-15T03:12:34.042Z,95932.4
2018-09-15T03:13:36.463Z,95933.2
2018-09-15T03:14:38.895Z,95932.4
2018-09-15T03:15:41.327Z,95931.3
2018-09-15T03:16:43.495Z,95932.5
2018-09-15T03:17:45.927Z,95935
2018-09-15T03:18:48.366Z,95935.4
2018-09-15T03:19:50.502Z,95935
2018-09-15T03:20:52.977Z,95941.6
2018-09-15T03:21:55.138Z,95941.6
2018-09-15T03:22:57.560Z,95941
2018-09-15T03:23:59.983Z,95943.6
2018-09-15T03:25:02.136Z,95942.9
2018-09-15T03:26:04.568Z,95940.5
2018-09-15T03:27:06.998Z,95946.4
2018-09-15T03:28:09.428Z,95945.1
2018-09-15T03:29:11.628Z,95945.5
2018-09-15T03:30:13.754Z,95948
2018-09-15T03:31:15.906Z,95947.1
2018-09-15T03:32:18.338Z,95950.1
2018-09-15T03:33:20.766Z,95944
2018-09-15T03:34:23.207Z,95950
2018-09-15T03:35:25.641Z,95943.1
2018-09-15T03:36:28.067Z,95941.4
2018-09-15T03:37:30.498Z,95939.6
2018-09-15T03:38:32.928Z,95939.9
2018-09-15T03:39:34.790Z,95938
2018-09-15T03:40:37.233Z,95936
2018-09-15T03:41:40.483Z,95939
2018-09-15T03:42:43.285Z,95944.9
2018-09-15T03:43:45.752Z,95947.9
2018-09-15T03:44:48.184Z,95948.1
2018-09-15T03:45:50.628Z,95945.8
2018-09-15T03:46:53.053Z,95948.6
2018-09-15T03:47:55.477Z,95948.7
2018-09-15T03:48:57.911Z,95951.9
2018-09-15T03:50:00.337Z,95951.6
2018-09-15T03:51:02.768Z,95951.9
2018-09-15T03:52:04.906Z,95955.9
2018-09-15T03:53:07.340Z,95953.3
2018-09-15T03:54:09.769Z,95952.1
2018-09-15T03:55:11.914Z,95949.8
2018-09-15T03:56:14.092Z,95946.3
2018-09-15T03:57:16.520Z,95948.6
2018-09-15T03:58:18.953Z,95945.4
2018-09-15T03:59:21.381Z,95946.6
2018-09-15T04:00:23.830Z,95944.8
2018-09-15T04:01:26.269Z,95947.5
2018-09-15T04:02:28.412Z,95951.5
2018-09-15T04:03:30.845Z,95959.1
2018-09-15T04:04:33.281Z,95965.4
2018-09-15T04:05:35.707Z,95968.1
2018-09-15T04:06:38.131Z,95969.4
2018-09-15T04:07:40.575Z,95973.3
2018-09-15T04:08:43.004Z,95968
2018-09-15T04:09:45.174Z,95971.1
2018-09-15T04:10:47.603Z,95968.3
2018-09-15T04:11:50.043Z,95966.9
2018-09-15T04:12:52.485Z,95970
2018-09-15T04:13:54.922Z,95969.2
2018-09-15T04:14:57.350Z,95974.4
2018-09-15T04:15:59.776Z,95969.8
2018-09-15T04:17:02.206Z,95962.1
2018-09-15T04:18:04.637Z,95968.7
2018-09-15T04:19:06.799Z,95970.1
2018-09-15T04:20:09.223Z,95969
2018-09-15T04:21:11.665Z,95976.4
2018-09-15T04:22:14.145Z,95976.6
2018-09-15T04:23:16.582Z,95978
2018-09-15T04:24:19.037Z,95980.2
2018-09-15T04:25:21.480Z,95983.4
2018-09-15T04:26:23.902Z,95982.1
2018-09-15T04:27:26.347Z,95984.5
2018-09-15T04:28:29.285Z,95987.4
2018-09-15T04:29:31.877Z,95988
2018-09-15T04:30:34.308Z,95987.3
2018-09-15T04:31:36.463Z,95986.8
2018-09-15T04:32:38.348Z,95986
2018-09-15T04:33:40.497Z,95987
2018-09-15T04:34:42.934Z,95986.1
2018-09-15T04:35:45.092Z,95986.1
2018-09-15T04:36:47.276Z,95981.7
2018-09-15T04:37:49.446Z,95986.4
2018-09-15T04:38:51.887Z,95987.1
2018-09-15T04:39:54.018Z,95986.9
2018-09-15T04:40:56.178Z,95989.8
2018-09-15T04:41:58.333Z,95995.9
2018-09-15T04:43:00.767Z,95998.3
2018-09-15T04:44:03.195Z,96002.7
2018-09-15T04:45:05.628Z,96001
2018-09-15T04:46:08.073Z,96010.7
2018-09-15T04:47:10.536Z,96012.3
2018-09-15T04:48:12.703Z,96012.7
2018-09-15T04:49:15.140Z,96018.4
2018-09-15T04:50:17.575Z,96020.5
2018-09-15T04:51:20.018Z,96019.6
2018-09-15T04:52:22.438Z,96019.9
2018-09-15T04:53:24.864Z,96024.8
2018-09-15T04:54:27.305Z,96023.4
2018-09-15T04:55:29.739Z,96028.1
2018-09-15T04:56:31.911Z,96025.8
2018-09-15T04:57:34.348Z,96024.9
2018-09-15T04:58:36.886Z,96023.3
2018-09-15T04:59:39.378Z,96023.4
2018-09-15T05:00:41.806Z,96030
2018-09-15T05:01:44.237Z,96030.5
2018-09-15T05:02:46.666Z,96036.3
2018-09-15T05:03:49.113Z,96040.3
2018-09-15T05:04:51.261Z,96040.3
2018-09-15T05:05:53.702Z,96042.7
2018-09-15T05:06:56.124Z,96044.8
2018-09-15T05:07:58.591Z,96051.8
2018-09-15T05:09:01.018Z,96051.2
2018-09-15T05:10:03.448Z,96052
2018-09-15T05:11:05.873Z,96054.7
2018-09-15T05:12:08.329Z,96055
2018-09-15T05:13:10.761Z,96050.8
2018-09-15T05:14:13.201Z,96058.2
2018-09-15T05:15:15.633Z,96057.3
2018-09-15T05:16:18.069Z,96058.1
2018-09-15T05:17:20.505Z,96059.7
2018-09-15T05:18:22.949Z,96060
2018-09-15T05:19:25.379Z,96061.9
2018-09-15T05:20:27.523Z,96064.7
2018-09-15T05:21:29.962Z,96065.1
2018-09-15T05:22:32.405Z,96068.4
2018-09-15T05:23:34.845Z,96070.9
2018-09-15T05:24:37.013Z,96073.2
2018-09-15T05:25:39.658Z,96073.5
2018-09-15T05:26:41.819Z,96076
2018-09-15T05:27:43.979Z,96070
2018-09-15T05:28:46.133Z,96072.9
2018-09-15T05:29:48.576Z,96065.2
2018-09-15T05:30:51.004Z,96063.4
2018-09-15T05:31:53.441Z,96065.5
2018-09-15T05:32:55.912Z,96062.6
2018-09-15T05:33:58.337Z,96065
2018-09-15T05:35:00.764Z,96061.5
2018-09-15T05:36:02.927Z,96067.3
2018-09-15T05:37:05.881Z,96066.8
2018-09-15T05:38:08.042Z,96069.3
2018-09-15T05:39:10.477Z,96075.5
2018-09-15T05:40:12.957Z,96079.2
2018-09-15T05:41:15.383Z,96078
2018-09-15T05:42:17.810Z,96081.5
2018-09-15T05:43:20.234Z,96085
2018-09-15T05:44:22.668Z,96088.2
2018-09-15T05:45:25.108Z,96087.1
2018-09-15T05:46:27.553Z,96090.3
2018-09-15T05:47:29.987Z,96092
2018-09-15T05:48:32.137Z,96090.8
2018-09-15T05:49:34.403Z,96093.6
2018-09-15T05:50:36.901Z,96097.8
2018-09-15T05:51:39.347Z,96099
2018-09-15T05:52:41.814Z,96100.8
2018-09-15T05:53:43.969Z,96104.4
2018-09-15T05:54:46.407Z,96101.3
2018-09-15T05:55:48.854Z,96101.3
2018-09-15T05:56:51.007Z,96101.7
2018-09-15T05:57:53.435Z,96102.9
2018-09-15T05:58:55.860Z,96100.9
2018-09-15T05:59:58.297Z,96101.6
2018-09-15T06:01:00.176Z,96102.1
2018-09-15T06:02:02.626Z,96103.6
2018-09-15T06:03:05.074Z,96099.6
2018-09-15T06:04:07.519Z,96106.9
2018-09-15T06:05:09.966Z,96102.2
2018-09-15T06:06:12.408Z,96107
2018-09-15T06:07:14.856Z,96106.8
2018-09-15T06:08:17.377Z,96112.8
2018-09-15T06:09:19.813Z,96110.7
2018-09-15T06:10:22.397Z,96111.3
2018-09-15T06:11:24.817Z,96112.2
2018-09-15T06:12:26.967Z,96115.4
2018-09-15T06:13:29.418Z,96116
2018-09-15T06:14:31.853Z,96119.9
2018-09-15T06:15:34.282Z,96119
2018-09-15T06:16:36.717Z,96121.5
2018-09-15T06:17:39.154Z,96121.1
2018-09-15T06:18:41.599Z,96120.3
2018-09-15T06:19:44.031Z,96116
2018-09-15T06:20:46.453Z,96119
2018-09-15T06:21:48.896Z,96122.8
2018-09-15T06:22:51.347Z,96117.1
2018-09-15T06:23:53.769Z,96125.8
2018-09-15T06:24:55.911Z,96120.7
2018-09-15T06:25:58.345Z,96124.3
2018-09-15T06:27:00.790Z,96127.5
2018-09-15T06:28:03.222Z,96122.1
2018-09-15T06:29:05.650Z,96126.5
2018-09-15T06:30:08.089Z,96129
2018-09-15T06:31:10.608Z,96127.8
2018-09-15T06:32:13.118Z,96127.8
2018-09-15T06:33:15.636Z,96131.7
2018-09-15T06:34:18.109Z,96130.5
2018-09-15T06:35:20.245Z,96130.4
2018-09-15T06:36:23.067Z,96129.5
2018-09-15T06:37:25.619Z,96127
2018-09-15T06:38:28.045Z,96127.5
2018-09-15T06:39:30.804Z,96130
2018-09-15T06:40:33.281Z,96129.8
2018-09-15T06:41:35.710Z,96124.7
2018-09-15T06:42:38.142Z,96128.1
2018-09-15T06:43:40.572Z,96131.3
2018-09-15T06:44:43.005Z,96128.9
2018-09-15T06:45:45.891Z,96128.8
2018-09-15T06:46:48.608Z,96133.8
2018-09-15T06:47:50.259Z,96130.8
2018-09-15T06:48:52.781Z,96131.6
2018-09-15T06:49:54.967Z,96127.8
2018-09-15T06:50:57.502Z,96129.3
2018-09-15T06:51:59.954Z,96130.1
2018-09-15T06:53:02.118Z,96129.8
2018-09-15T06:54:04.568Z,96135.2
2018-09-15T06:55:07.017Z,96137.4
2018-09-15T06:56:09.458Z,96135.2
2018-09-15T06:57:11.906Z,96136.4
2018-09-15T06:58:14.363Z,96135.6
2018-09-15T06:59:16.522Z,96132.9
2018-09-15T07:00:18.969Z,96136.5
2018-09-15T07:01:21.117Z,96137
2018-09-15T07:02:23.553Z,96138.8
2018-09-15T07:03:26.005Z,96138.7
2018-09-15T07:04:28.444Z,96137.9
2018-09-15T07:05:30.901Z,96137.5
2018-09-15T07:06:33.350Z,96141.3
2018-09-15T07:07:35.786Z,96144.6
2018-09-15T07:08:37.957Z,96144.3
2018-09-15T07:09:40.131Z,96148.2
2018-09-15T07:10:42.573Z,96151.7
2018-09-15T07:11:45.014Z,96152.1
2018-09-15T07:12:47.453Z,96152
2018-09-15T07:13:49.889Z,96157.1
2018-09-15T07:14:52.339Z,96153.1
2018-09-15T07:15:54.761Z,96152.2
2018-09-15T07:16:57.205Z,96151.8
2018-09-15T07:17:59.375Z,96158.1
2018-09-15T07:19:01.548Z,96159.7
2018-09-15T07:20:04.170Z,96164.2
2018-09-15T07:21:06.670Z,96169.8
2018-09-15T07:22:09.123Z,96171.9
2018-09-15T07:23:11.556Z,96178.6
2018-09-15T07:24:13.865Z,96180.1
2018-09-15T07:25:16.287Z,96181.8
2018-09-15T07:26:18.755Z,96185.3
2018-09-15T07:27:21.195Z,96183.3
2018-09-15T07:28:23.645Z,96185.6
2018-09-15T07:29:26.076Z,96188.9
2018-09-15T07:30:28.516Z,96185.2
2018-09-15T07:31:31.279Z,96190.2
2018-09-15T07:32:33.924Z,96189
2018-09-15T07:33:36.357Z,96191.1
2018-09-15T07:34:38.854Z,96188.4
2018-09-15T07:35:41.291Z,96196.3
2018-09-15T07:36:43.456Z,96195.9
2018-09-15T07:37:46.618Z,96194.3
2018-09-15T07:38:49.144Z,96195.8
2018-09-15T07:39:51.584Z,96192.7
2018-09-15T07:40:54.034Z,96192.3
2018-09-15T07:41:56.479Z,96197.1
2018-09-15T07:42:58.917Z,96197.1
2018-09-15T07:44:01.343Z,96191.8
2018-09-15T07:45:03.794Z,96193.7
2018-09-15T07:46:05.946Z,96194
2018-09-15T07:47:08.389Z,96194.5
2018-09-15T07:48:10.819Z,96195
2018-09-15T07:49:13.247Z,96197.7
2018-09-15T07:50:15.683Z,96197.4
2018-09-15T07:51:18.109Z,96198.8
2018-09-15T07:52:20.559Z,96196.4
2018-09-15T07:53:22.993Z,96200.8
2018-09-15T07:54:25.183Z,96202.3
2018-09-15T07:55:27.628Z,96202.6
2018-09-15T07:56:30.068Z,96204.7
2018-09-15T07:57:32.898Z,96207
2018-09-15T07:58:35.517Z,96206.5
2018-09-15T07:59:37.948Z,96208.9
2018-09-15T08:00:40.390Z,96206.8
2018-09-15T08:01:42.839Z,96204
2018-09-15T08:02:45.272Z,96205.1
2018-09-15T08:03:47.706Z,96207
2018-09-15T08:04:50.174Z,96208.4
2018-09-15T08:05:52.606Z,96208.3
2018-09-15T08:06:54.493Z,96208.6
2018-09-15T08:07:56.939Z,96214.7
2018-09-15T08:08:59.381Z,96213
2018-09-15T08:10:01.807Z,96211.1
2018-09-15T08:11:04.545Z,96213.1
2018-09-15T08:12:06.715Z,96212.2
2018-09-15T08:13:08.858Z,96212
2018-09-15T08:14:11.288Z,96216.5
2018-09-15T08:15:13.717Z,96214.4
2018-09-15T08:16:16.145Z,96217.8
2018-09-15T08:17:18.576Z,96218.8
2018-09-15T08:18:21.012Z,96222
2018-09-15T08:19:23.168Z,96215.4
2018-09-15T08:20:25.609Z,96212.1
2018-09-15T08:21:28.529Z,96211
2018-09-15T08:22:31.051Z,96206.4
2018-09-15T08:23:33.497Z,96204.5
2018-09-15T08:24:35.917Z,96201.9
2018-09-15T08:25:37.818Z,96199.4
2018-09-15T08:26:40.256Z,96195.8
2018-09-15T08:27:42.754Z,96200.4
2018-09-15T08:28:45.166Z,96196.6
2018-09-15T08:29:47.357Z,96198.5
2018-09-15T08:30:49.788Z,96198.9
2018-09-15T08:31:52.424Z,96200.8
2018-09-15T08:32:54.919Z,96207.8
2018-09-15T08:33:57.353Z,96207.5
2018-09-15T08:34:59.799Z,96206.3
2018-09-15T08:36:02.224Z,96209.5
2018-09-15T08:37:04.658Z,96210.9
2018-09-15T08:38:07.123Z,96214.6
2018-09-15T08:39:09.297Z,96214.9
2018-09-15T08:40:11.730Z,96213.3
2018-09-15T08:41:14.268Z,96217.1
2018-09-15T08:42:16.758Z,96220.2
2018-09-15T08:43:19.222Z,96217.4
2018-09-15T08:44:21.675Z,96213.8
2018-09-15T08:45:24.111Z,96213.9
2018-09-15T08:46:26.538Z,96213.5
2018-09-15T08:47:28.957Z,96218.8
2018-09-15T08:48:31.402Z,96223.8
2018-09-15T08:49:33.557Z,96224.5
2018-09-15T08:50:35.989Z,96225.5
2018-09-15T08:51:38.451Z,96228.1
2018-09-15T08:52:40.887Z,96227.6
2018-09-15T08:53:42.773Z,96230.2
2018-09-15T08:54:44.685Z,96229.6
2018-09-15T08:55:46.877Z,96230.4
2018-09-15T08:56:48.479Z,96231
2018-09-15T08:57:50.368Z,96231.4
2018-09-15T08:58:52.810Z,96231.7
2018-09-15T08:59:55.248Z,96234
2018-09-15T09:00:57.395Z,96231
2018-09-15T09:01:59.825Z,96232.3
2018-09-15T09:03:02.012Z,96232.4
2018-09-15T09:04:04.167Z,96233.8
2018-09-15T09:05:06.651Z,96238
2018-09-15T09:06:09.085Z,96236.2
2018-09-15T09:07:11.509Z,96236.6
2018-09-15T09:08:13.653Z,96237.3
2018-09-15T09:09:16.084Z,96235.2
2018-09-15T09:10:18.701Z,96235.9
2018-09-15T09:11:21.297Z,96233.3
2018-09-15T09:12:23.737Z,96235.1
2018-09-15T09:13:26.167Z,96237.8
2018-09-15T09:14:28.324Z,96239.7
2018-09-15T09:15:30.494Z,96240.4
2018-09-15T09:16:32.948Z,96242.2
2018-09-15T09:17:35.449Z,96241.4
2018-09-15T09:18:37.904Z,96243
2018-09-15T09:19:40.348Z,96240.4
2018-09-15T09:20:42.529Z,96235.9
2018-09-15T09:21:44.976Z,96238.6
2018-09-15T09:22:47.416Z,96242.4
2018-09-15T09:23:49.884Z,96243
2018-09-15T09:24:52.310Z,96239.5
2018-09-15T09:25:55.045Z,96241.7
2018-09-15T09:26:57.566Z,96237
2018-09-15T09:27:59.735Z,96235.3
2018-09-15T09:29:01.886Z,96235.1
2018-09-15T09:30:04.328Z,96237.1
2018-09-15T09:31:06.755Z,96239.4
2018-09-15T09:32:09.249Z,96235.1
2018-09-15T09:33:11.272Z,96237
2018-09-15T09:34:13.797Z,96238
2018-09-15T09:35:16.227Z,96239.1
2018-09-15T09:36:18.680Z,96238.4
2018-09-15T09:37:21.145Z,96240.7
2018-09-15T09:38:23.961Z,96240.1
2018-09-15T09:39:26.623Z,96241.6
2018-09-15T09:40:29.050Z,96239.6
2018-09-15T09:41:31.748Z,96238
2018-09-15T09:42:34.072Z,96238.3
2018-09-15T09:43:36.507Z,96239.1
2018-09-15T09:44:38.952Z,96242.2
2018-09-15T09:45:41.381Z,96246.8
2018-09-15T09:46:43.819Z,96242.5
2018-09-15T09:47:46.078Z,96244.6
2018-09-15T09:48:48.536Z,96247.2
2018-09-15T09:49:50.968Z,96245.4
2018-09-15T09:50:53.418Z,96246.8
2018-09-15T09:51:55.865Z,96247
2018-09-15T09:52:58.307Z,96248.3
2018-09-15T09:54:00.740Z,96243.6
2018-09-15T09:55:03.169Z,96250.1
2018-09-15T09:56:05.598Z,96243.7
2018-09-15T09:57:08.028Z,96248
2018-09-15T09:58:10.461Z,96245.5
2018-09-15T09:59:12.619Z,96248.3
2018-09-15T10:00:15.058Z,96254.7
2018-09-15T10:01:17.747Z,96249.1
2018-09-15T10:02:20.389Z,96247.8
2018-09-15T10:03:22.818Z,96248.1
2018-09-15T10:04:25.253Z,96247.3
2018-09-15T10:05:27.688Z,96247.7
2018-09-15T10:06:30.125Z,96248.4
2018-09-15T10:07:32.609Z,96246.5
2018-09-15T10:08:35.057Z,96250.3
2018-09-15T10:09:37.499Z,96251.9
2018-09-15T10:10:39.946Z,96249.3
2018-09-15T10:11:42.378Z,96256.4
2018-09-15T10:12:44.797Z,96249
2018-09-15T10:13:47.226Z,96252
2018-09-15T10:14:49.674Z,96253
2018-09-15T10:15:52.395Z,96251.8
2018-09-15T10:16:54.978Z,96255
2018-09-15T10:17:57.409Z,96258.3
2018-09-15T10:18:59.573Z,96257.7
2018-09-15T10:20:02.009Z,96252.9
2018-09-15T10:21:04.465Z,96245.6
2018-09-15T10:22:06.908Z,96248.1
2018-09-15T10:23:09.348Z,96246
2018-09-15T10:24:11.799Z,96243.2
2018-09-15T10:25:14.235Z,96243.5
2018-09-15T10:26:16.670Z,96238.5
2018-09-15T10:27:19.098Z,96240.4
2018-09-15T10:28:21.256Z,96237.7
2018-09-15T10:29:23.697Z,96237.5
2018-09-15T10:30:26.125Z,96240.7
2018-09-15T10:31:28.558Z,96238.7
2018-09-15T10:32:30.726Z,96238.4
2018-09-15T10:33:33.167Z,96237.4
2018-09-15T10:34:35.648Z,96240.8
2018-09-15T10:35:38.085Z,96239.3
2018-09-15T10:36:40.551Z,96239.7
2018-09-15T10:37:43.002Z,96239.4
2018-09-15T10:38:45.442Z,96240
2018-09-15T10:39:47.878Z,96235.6
2018-09-15T10:40:50.322Z,96236.9
2018-09-15T10:41:52.764Z,96233.3
2018-09-15T10:42:55.200Z,96231.7
2018-09-15T10:43:57.360Z,96238.9
2018-09-15T10:44:59.801Z,96237.5
2018-09-15T10:46:02.896Z,96236.9
2018-09-15T10:47:05.539Z,96236.5
2018-09-15T10:48:07.979Z,96237
2018-09-15T10:49:10.424Z,96237.1
2018-09-15T10:50:12.618Z,96236.1
2018-09-15T10:51:15.089Z,96236.2
2018-09-15T10:52:17.682Z,96235.6
2018-09-15T10:53:20.259Z,96235.6
2018-09-15T10:54:22.687Z,96235.6
2018-09-15T10:55:25.117Z,96231.6
2018-09-15T10:56:27.568Z,96233.2
2018-09-15T10:57:29.749Z,96234.8
2018-09-15T10:58:32.192Z,96233.4
2018-09-15T10:59:34.624Z,96235.6
2018-09-15T11:00:37.147Z,96232.8
2018-09-15T11:01:39.596Z,96231.5
2018-09-15T11:02:42.035Z,96232.9
2018-09-15T11:03:44.468Z,96229.7
2018-09-15T11:04:46.900Z,96232.8
2018-09-15T11:05:49.503Z,96234.3
2018-09-15T11:06:51.955Z,96233.3
2018-09-15T11:07:54.439Z,96234.3
2018-09-15T11:08:56.893Z,96234.1
2018-09-15T11:09:59.354Z,96237.5
2018-09-15T11:11:01.779Z,96237.8
2018-09-15T11:12:04.220Z,96233.8
2018-09-15T11:13:06.812Z,96236.1
2018-09-15T11:14:08.909Z,96241.5
2018-09-15T11:15:11.344Z,96243.7
2018-09-15T11:16:13.781Z,96243.5
2018-09-15T11:17:16.214Z,96244.6
2018-09-15T11:18:18.656Z,96241.5
2018-09-15T11:19:20.542Z,96240.7
2018-09-15T11:20:22.978Z,96235.5
2018-09-15T11:21:25.438Z,96240.9
2018-09-15T11:22:28.116Z,96238.2
2018-09-15T11:23:30.184Z,96240.7
2018-09-15T11:24:32.628Z,96240
2018-09-15T11:25:35.063Z,96240.8
2018-09-15T11:26:37.529Z,96240.1
2018-09-15T11:27:39.953Z,96242.5
2018-09-15T11:28:42.635Z,96240.5
2018-09-15T11:29:45.337Z,96244.2
2018-09-15T11:30:47.778Z,96244.1
2018-09-15T11:31:50.219Z,96242
2018-09-15T11:32:52.383Z,96244
2018-09-15T11:33:54.880Z,96243
2018-09-15T11:34:57.316Z,96241.7
2018-09-15T11:35:59.466Z,96241.3
2018-09-15T11:37:01.900Z,96238.9
2018-09-15T11:38:04.338Z,96237.4
2018-09-15T11:39:06.780Z,96233.6
2018-09-15T11:40:08.936Z,96234.6
2018-09-15T11:41:11.076Z,96238.4
2018-09-15T11:42:13.629Z,96230.7
2018-09-15T11:43:16.076Z,96235.5
2018-09-15T11:44:18.526Z,96237.1
2018-09-15T11:45:20.974Z,96236.6
2018-09-15T11:46:23.408Z,96235
2018-09-15T11:47:25.590Z,96233.5
2018-09-15T11:48:28.029Z,96232.5
2018-09-15T11:49:30.466Z,96232.6
2018-09-15T11:50:32.897Z,96231.6
2018-09-15T11:51:35.350Z,96231.8
2018-09-15T11:52:37.775Z,96233
2018-09-15T11:53:40.291Z,96231
2018-09-15T11:54:42.781Z,96230
2018-09-15T11:55:45.219Z,96227.1
2018-09-15T11:56:47.648Z,96231.7
2018-09-15T11:57:50.074Z,96225.7
2018-09-15T11:58:52.239Z,96224.3
2018-09-15T11:59:54.754Z,96222
2018-09-15T12:00:57.179Z,96223.9
2018-09-15T12:01:59.979Z,96216.6
2018-09-15T12:03:02.494Z,96213
2018-09-15T12:04:04.935Z,96216.5
2018-09-15T12:05:07.361Z,96214.3
2018-09-15T12:06:09.795Z,96209.8
2018-09-15T12:07:12.222Z,96210.8
2018-09-15T12:08:14.656Z,96212.1
2018-09-15T12:09:17.102Z,96209
2018-09-15T12:10:19.678Z,96211.6
2018-09-15T12:11:22.118Z,96209.5
2018-09-15T12:12:24.275Z,96213
2018-09-15T12:13:26.740Z,96212.2
2018-09-15T12:14:29.181Z,96214.3
2018-09-15T12:15:31.612Z,96208.2
2018-09-15T12:16:34.053Z,96214.7
2018-09-15T12:17:36.493Z,96210.7
2018-09-15T12:18:38.932Z,96211.4
2018-09-15T12:19:41.352Z,96212.6
2018-09-15T12:20:43.777Z,96212.5
2018-09-15T12:21:46.653Z,96215.2
2018-09-15T12:22:49.212Z,96212.3
2018-09-15T12:23:51.658Z,96214.7
2018-09-15T12:24:54.106Z,96217.6
2018-09-15T12:25:56.267Z,96216.5
2018-09-15T12:26:58.698Z,96215.9
2018-09-15T12:28:01.730Z,96211.4
2018-09-15T12:29:04.188Z,96212.1
2018-09-15T12:30:06.634Z,96215.2
2018-09-15T12:31:09.076Z,96214.8
2018-09-15T12:32:11.501Z,96216.9
2018-09-15T12:33:13.923Z,96220.5
2018-09-15T12:34:16.362Z,96216.2
2018-09-15T12:35:18.784Z,96214.7
2018-09-15T12:36:20.940Z,96211.4
2018-09-15T12:37:23.448Z,96207.4
2018-09-15T12:38:25.946Z,96215.7
2018-09-15T12:39:28.726Z,96214
2018-09-15T12:40:31.316Z,96209.4